Time;durP1;ratioP1;P1;durP2;ratioP2;P2;SDS_P1;SDS_P2;PMS_P1;PMS_P2;Temp;Humidity;BMP_temperature;BMP_pressure;BME280_temperature;BME280_humidity;BME280_pressure;Samples;Min_cycle;Max_cycle;Signal;HPM_P1;HPM_P2
2022/08/10 00:00:22;;;;;;;;;;;;;;;16.14;50.14;102068.28;1620266;87;20130;-75
2022/08/10 00:02:50;;;;;;;;;;;;;;;16.13;50.07;102071.34;1624383;87;20174;-75
2022/08/10 00:05:16;;;;;;;;;;;;;;;16.07;50.11;102074.08;1606314;87;20109;-75
2022/08/10 00:07:42;;;;;;;;;;;;;;;16.05;50.09;102078.90;1578635;90;20148;-75
2022/08/10 00:10:10;;;;;;;;;;;;;;;16.01;50.21;102078.52;1620851;87;20163;-75
2022/08/10 00:12:36;;;;;;;;;;;;;;;15.98;50.22;102074.66;1621029;87;20139;-75
2022/08/10 00:15:03;;;;;;;;;;;;;;;15.92;50.24;102074.30;1623330;87;20160;-75
2022/08/10 00:17:29;;;;;;;;;;;;;;;15.88;50.34;102074.79;1628425;87;20190;-75
2022/08/10 00:19:56;;;;;;;;;;;;;;;15.85;50.47;102070.92;1624066;87;20100;-75
2022/08/10 00:22:22;;;;;;;;;;;;;;;15.88;50.34;102068.71;1612268;87;20134;-75
2022/08/10 00:24:48;;;;;;;;;;;;;;;15.92;50.47;102070.83;1615842;87;20110;-75
2022/08/10 00:27:14;;;;;;;;;;;;;;;15.92;50.31;102076.05;1619051;87;20747;-75
2022/08/10 00:29:40;;;;;;;;;;;;;;;15.88;50.44;102076.09;1618591;87;20151;-75
2022/08/10 00:32:06;;;;;;;;;;;;;;;15.82;50.46;102084.45;1634458;87;20182;-75
2022/08/10 00:34:33;;;;;;;;;;;;;;;15.81;50.51;102082.72;1615971;87;20556;-75
2022/08/10 00:36:59;;;;;;;;;;;;;;;15.74;50.60;102079.34;1618025;87;20130;-75
2022/08/10 00:39:27;;;;;;;;;;;;;;;15.69;50.74;102081.59;1599111;87;20155;-75
2022/08/10 00:41:54;;;;;;;;;;;;;;;15.64;50.91;102085.56;1614873;87;20230;-75
2022/08/10 00:44:20;;;;;;;;;;;;;;;15.65;51.03;102082.07;1623817;87;20212;-76
2022/08/10 00:46:46;;;;;;;;;;;;;;;15.65;51.02;102086.42;1617323;87;20216;-75
2022/08/10 00:49:13;;;;;;;;;;;;;;;15.61;50.93;102076.47;1625876;87;20163;-76
2022/08/10 00:51:40;;;;;;;;;;;;;;;15.58;50.95;102077.85;1619352;87;20110;-76
2022/08/10 00:54:06;;;;;;;;;;;;;;;15.53;51.00;102080.92;1616066;87;20100;-76
2022/08/10 00:56:32;;;;;;;;;;;;;;;15.45;51.03;102075.81;1617117;87;20110;-76
2022/08/10 00:58:58;;;;;;;;;;;;;;;15.37;51.05;102078.95;1620658;87;20104;-76
2022/08/10 01:01:24;;;;;;;;;;;;;;;15.36;51.12;102082.44;1616247;87;20110;-76
2022/08/10 01:03:51;;;;;;;;;;;;;;;15.34;51.28;102084.64;1621886;87;20110;-76
2022/08/10 01:06:49;;;;;;;;;;;;;;;15.31;51.32;102080.33;1624924;87;20090;-76
2022/08/10 01:09:44;;;;;;;;;;;;;;;15.33;51.38;102082.92;1626306;87;20168;-76
2022/08/10 01:12:28;;;;;;;;;;;;;;;15.30;51.34;102082.95;1622727;87;20222;-75
2022/08/10 01:14:59;;;;;;;;;;;;;;;15.35;51.42;102075.50;1641974;87;20121;-75
2022/08/10 01:17:34;;;;;;;;;;;;;;;15.42;51.54;102077.59;1623359;87;20110;-75
2022/08/10 01:20:04;;;;;;;;;;;;;;;15.44;51.48;102073.22;1623588;87;20133;-75
2022/08/10 01:22:54;;;;;;;;;;;;;;;15.41;51.50;102074.13;1629775;87;20556;-75
2022/08/10 01:25:33;;;;;;;;;;;;;;;15.36;51.48;102069.41;1625032;87;20113;-75
2022/08/10 01:28:25;;;;;;;;;;;;;;;15.34;51.66;102074.22;1619987;87;20130;-75
2022/08/10 01:30:53;;;;;;;;;;;;;;;15.28;51.93;102072.98;1627431;87;20097;-75
2022/08/10 01:33:25;;;;;;;;;;;;;;;15.25;51.78;102072.58;1624792;87;20106;-75
2022/08/10 01:36:00;;;;;;;;;;;;;;;15.28;51.93;102068.64;1622599;87;20413;-75
2022/08/10 01:38:30;;;;;;;;;;;;;;;15.31;51.90;102067.30;1627151;87;20142;-75
2022/08/10 01:41:13;;;;;;;;;;;;;;;15.35;52.21;102069.42;1597174;88;20179;-75
2022/08/10 01:43:46;;;;;;;;;;;;;;;15.28;51.93;102055.61;1598112;87;20147;-76
2022/08/10 01:46:13;;;;;;;;;;;;;;;15.19;52.00;102054.41;1630524;87;20144;-75
2022/08/10 01:48:42;;;;;;;;;;;;;;;15.20;52.12;102053.09;1625764;87;20102;-75
2022/08/10 01:51:20;;;;;;;;;;;;;;;15.23;52.14;102052.19;1624427;87;20711;-75
2022/08/10 01:53:59;;;;;;;;;;;;;;;15.21;52.18;102049.61;1622588;87;20152;-76
2022/08/10 01:56:28;;;;;;;;;;;;;;;15.19;52.21;102050.06;1621604;87;20357;-75
2022/08/10 01:58:57;;;;;;;;;;;;;;;15.17;52.46;102047.92;1626102;87;20247;-75
2022/08/10 02:01:27;;;;;;;;;;;;;;;15.11;52.33;102061.02;1623152;87;20336;-75
2022/08/10 02:03:57;;;;;;;;;;;;;;;15.05;52.37;102053.75;1616477;87;20229;-75
2022/08/10 02:06:25;;;;;;;;;;;;;;;15.06;52.67;102058.94;1610579;87;20201;-75
2022/08/10 02:08:52;;;;;;;;;;;;;;;15.02;52.45;102053.78;1619926;87;20203;-75
2022/08/10 02:11:19;;;;;;;;;;;;;;;14.98;52.43;102059.46;1616972;87;20218;-75
2022/08/10 02:13:46;;;;;;;;;;;;;;;14.94;52.55;102059.07;1613825;87;20348;-75
2022/08/10 02:16:13;;;;;;;;;;;;;;;14.93;52.49;102054.73;1621826;87;20277;-75
2022/08/10 02:18:41;;;;;;;;;;;;;;;14.89;52.50;102047.84;1621298;87;20596;-75
2022/08/10 02:21:07;;;;;;;;;;;;;;;14.90;52.63;102050.87;1625402;87;20207;-75
2022/08/10 02:23:36;;;;;;;;;;;;;;;14.88;52.61;102050.88;1619861;87;20524;-75
2022/08/10 02:26:09;;;;;;;;;;;;;;;14.85;52.63;102054.82;1598249;88;20225;-75
2022/08/10 02:28:37;;;;;;;;;;;;;;;14.83;52.83;102051.81;1641666;86;20232;-75
2022/08/10 02:31:12;;;;;;;;;;;;;;;14.79;52.88;102055.33;1614927;87;20312;-75
2022/08/10 02:33:40;;;;;;;;;;;;;;;14.76;52.96;102051.02;1624638;87;20227;-75
2022/08/10 02:36:09;;;;;;;;;;;;;;;14.71;52.95;102054.54;1630911;87;20207;-76
2022/08/10 02:38:44;;;;;;;;;;;;;;;14.70;53.13;102059.32;1611447;87;20202;-76
2022/08/10 02:41:13;;;;;;;;;;;;;;;14.64;53.15;102059.38;1616936;87;20495;-76
2022/08/10 02:43:50;;;;;;;;;;;;;;;14.64;53.08;102055.47;1621564;87;20200;-76
2022/08/10 02:46:23;;;;;;;;;;;;;;;14.66;53.08;102057.19;1618383;87;20283;-76
2022/08/10 02:48:52;;;;;;;;;;;;;;;14.67;53.13;102053.70;1622142;87;20259;-76
2022/08/10 02:51:24;;;;;;;;;;;;;;;14.64;53.02;102055.03;1613969;87;20526;-75
2022/08/10 02:53:54;;;;;;;;;;;;;;;14.60;53.06;102056.38;1615775;87;20514;-75
2022/08/10 02:56:41;;;;;;;;;;;;;;;14.50;53.04;102061.70;1620351;87;20211;-75
2022/08/10 02:59:11;;;;;;;;;;;;;;;14.43;53.17;102060.47;1618608;87;20294;-75
2022/08/10 03:01:42;;;;;;;;;;;;;;;14.38;53.29;102067.42;1598171;87;20242;-75
2022/08/10 03:04:15;;;;;;;;;;;;;;;14.40;53.27;102067.83;1616942;87;20202;-75
2022/08/10 03:06:44;;;;;;;;;;;;;;;14.44;53.41;102070.00;1627160;87;20236;-75
2022/08/10 03:09:17;;;;;;;;;;;;;;;14.41;53.46;102074.80;1612263;87;20203;-75
2022/08/10 03:11:43;;;;;;;;;;;;;;;14.33;53.47;102072.66;1631914;87;20561;-75
2022/08/10 03:14:10;;;;;;;;;;;;;;;14.29;53.69;102072.70;1621314;87;20490;-75
2022/08/10 03:16:36;;;;;;;;;;;;;;;14.25;53.58;102068.81;1624127;87;20202;-75
2022/08/10 03:19:05;;;;;;;;;;;;;;;14.25;53.55;102074.45;1619235;87;20177;-75
2022/08/10 03:21:32;;;;;;;;;;;;;;;14.19;53.62;102069.30;1615452;87;20242;-75
2022/08/10 03:24:01;;;;;;;;;;;;;;;14.11;53.73;102069.80;1615163;87;20289;-75
2022/08/10 03:26:30;;;;;;;;;;;;;;;14.05;53.77;102072.00;1625866;87;20268;-75
2022/08/10 03:28:57;;;;;;;;;;;;;;;14.06;53.82;102071.56;1609766;87;20179;-75
2022/08/10 03:31:26;;;;;;;;;;;;;;;14.13;53.88;102070.65;1625348;87;20350;-75
2022/08/10 03:33:53;;;;;;;;;;;;;;;14.14;53.84;102070.64;1631449;87;20122;-76
2022/08/10 03:36:20;;;;;;;;;;;;;;;14.13;53.81;102071.52;1635412;87;20109;-76
2022/08/10 03:38:50;;;;;;;;;;;;;;;14.10;53.73;102075.44;1629777;87;20121;-76
2022/08/10 03:41:15;;;;;;;;;;;;;;;14.11;53.82;102079.77;1620192;87;20142;-75
2022/08/10 03:43:44;;;;;;;;;;;;;;;14.06;53.90;102078.93;1625381;87;20533;-75
2022/08/10 03:46:12;;;;;;;;;;;;;;;14.03;54.05;102078.12;1620709;87;20178;-75
2022/08/10 03:48:39;;;;;;;;;;;;;;;14.03;54.01;102080.28;1617668;87;20147;-76
2022/08/10 03:51:06;;;;;;;;;;;;;;;14.01;54.13;102081.17;1614568;87;20135;-76
2022/08/10 03:53:34;;;;;;;;;;;;;;;14.00;54.17;102082.91;1618298;87;20107;-76
2022/08/10 03:56:01;;;;;;;;;;;;;;;14.03;54.30;102084.63;1621899;87;20135;-76
2022/08/10 03:58:27;;;;;;;;;;;;;;;14.01;54.36;102084.63;1629114;87;20091;-76
2022/08/10 04:00:54;;;;;;;;;;;;;;;13.99;54.33;102084.22;1636087;87;20139;-76
2022/08/10 04:03:20;;;;;;;;;;;;;;;13.94;54.27;102092.05;1627115;85;20564;-76
2022/08/10 04:05:47;;;;;;;;;;;;;;;13.90;54.37;102089.90;1618429;87;20404;-76
2022/08/10 04:08:13;;;;;;;;;;;;;;;13.88;54.43;102097.28;1620431;87;20118;-76
2022/08/10 04:10:39;;;;;;;;;;;;;;;13.89;54.48;102095.97;1612569;87;20090;-76
2022/08/10 04:13:05;;;;;;;;;;;;;;;13.94;54.55;102098.55;1619267;87;20228;-76
2022/08/10 04:15:31;;;;;;;;;;;;;;;13.94;54.76;102102.45;1623894;87;20130;-76
2022/08/10 04:17:57;;;;;;;;;;;;;;;13.99;54.77;102106.33;1623851;87;20119;-76
2022/08/10 04:20:33;;;;;;;;;;;;;;;14.02;54.96;102102.40;1641833;87;20192;-76
2022/08/10 04:23:02;;;;;;;;;;;;;;;14.03;55.04;102103.69;1621606;87;20207;-76
2022/08/10 04:25:29;;;;;;;;;;;;;;;14.00;55.23;102106.31;1616682;87;20194;-76
2022/08/10 04:27:55;;;;;;;;;;;;;;;14.01;55.10;102104.14;1616541;87;20223;-75
2022/08/10 04:30:21;;;;;;;;;;;;;;;14.02;55.27;102098.50;1625117;87;20235;-75
2022/08/10 04:32:51;;;;;;;;;;;;;;;14.03;55.12;102111.93;1613863;87;20226;-75
2022/08/10 04:35:19;;;;;;;;;;;;;;;14.03;55.40;102110.63;1630087;87;20222;-75
2022/08/10 04:37:47;;;;;;;;;;;;;;;14.04;55.46;102109.29;1618517;87;20214;-75
2022/08/10 04:40:16;;;;;;;;;;;;;;;14.05;55.44;102114.05;1611460;87;20222;-75
2022/08/10 04:42:42;;;;;;;;;;;;;;;14.11;55.63;102108.81;1611600;87;21022;-75
2022/08/10 04:45:10;;;;;;;;;;;;;;;14.13;55.59;102110.53;1619570;87;20181;-76
2022/08/10 04:47:39;;;;;;;;;;;;;;;14.18;55.66;102117.00;1622099;87;20115;-76
2022/08/10 04:50:06;;;;;;;;;;;;;;;14.23;55.66;102112.20;1617499;87;20116;-76
2022/08/10 04:52:32;;;;;;;;;;;;;;;14.32;55.75;102117.77;1622397;87;20115;-76
2022/08/10 04:54:59;;;;;;;;;;;;;;;14.37;55.76;102116.00;1610250;87;36700;-76
2022/08/10 04:57:26;;;;;;;;;;;;;;;14.43;55.86;102124.23;1617860;87;20238;-75
2022/08/10 04:59:52;;;;;;;;;;;;;;;14.48;55.98;102114.65;1618750;87;20114;-75
2022/08/10 05:02:19;;;;;;;;;;;;;;;14.54;56.11;102116.77;1618029;87;20442;-75
2022/08/10 05:04:45;;;;;;;;;;;;;;;14.62;56.06;102119.27;1618981;87;20117;-75
2022/08/10 05:07:13;;;;;;;;;;;;;;;14.70;56.34;102112.70;1625001;87;20106;-75
2022/08/10 05:09:40;;;;;;;;;;;;;;;14.81;56.60;102119.53;1626114;87;20140;-75
2022/08/10 05:12:06;;;;;;;;;;;;;;;14.94;56.56;102116.81;1631134;87;20530;-76
2022/08/10 05:14:33;;;;;;;;;;;;;;;15.06;56.60;102120.16;1636330;87;20744;-76
2022/08/10 05:16:59;;;;;;;;;;;;;;;15.22;56.55;102122.13;1622203;87;20118;-76
2022/08/10 05:19:25;;;;;;;;;;;;;;;15.36;56.93;102121.98;1625620;87;20193;-76
2022/08/10 05:21:52;;;;;;;;;;;;;;;15.51;56.91;102125.70;1623241;87;20094;-76
2022/08/10 05:24:18;;;;;;;;;;;;;;;15.66;57.18;102116.39;1630018;85;20154;-75
2022/08/10 05:26:44;;;;;;;;;;;;;;;15.94;57.33;102122.10;1632032;86;20169;-75
2022/08/10 05:29:11;;;;;;;;;;;;;;;16.41;57.51;102128.33;1622290;87;20110;-76
2022/08/10 05:31:37;;;;;;;;;;;;;;;17.01;57.02;102122.95;1635766;87;20109;-76
2022/08/10 05:34:03;;;;;;;;;;;;;;;17.57;57.26;102117.89;1625891;87;20134;-80
2022/08/10 05:36:30;;;;;;;;;;;;;;;18.11;56.72;102119.74;1629387;84;20227;-81
2022/08/10 05:38:57;;;;;;;;;;;;;;;18.63;56.63;102116.31;1618776;87;20460;-76
2022/08/10 05:41:23;;;;;;;;;;;;;;;19.16;56.48;102123.59;1618589;87;20196;-76
2022/08/10 05:43:50;;;;;;;;;;;;;;;19.69;56.04;102122.52;1622802;87;20213;-77
2022/08/10 05:46:16;;;;;;;;;;;;;;;20.20;55.94;102116.98;1597884;87;20209;-77
2022/08/10 05:48:42;;;;;;;;;;;;;;;20.74;55.71;102126.14;1630883;87;20142;-77
2022/08/10 05:51:09;;;;;;;;;;;;;;;21.26;55.46;102125.17;1625226;87;20229;-77
2022/08/10 05:53:37;;;;;;;;;;;;;;;21.73;55.02;102126.00;1623368;87;20659;-77
2022/08/10 05:56:06;;;;;;;;;;;;;;;22.13;54.98;102120.03;1627909;87;20236;-77
2022/08/10 05:58:33;;;;;;;;;;;;;;;22.55;54.75;102120.48;1635809;87;20238;-77
2022/08/10 06:01:03;;;;;;;;;;;;;;;22.97;54.53;102126.16;1637070;87;20176;-77
2022/08/10 06:03:35;;;;;;;;;;;;;;;23.42;54.10;102132.00;1629810;86;20242;-77
2022/08/10 06:06:03;;;;;;;;;;;;;;;23.87;54.03;102133.94;1627288;87;20402;-77
2022/08/10 06:08:34;;;;;;;;;;;;;;;24.14;53.74;102133.91;1631516;87;20458;-77
2022/08/10 06:11:02;;;;;;;;;;;;;;;24.43;53.44;102141.27;1603798;87;20224;-77
2022/08/10 06:16:16;;;;;;;;;;;;;;;24.98;53.18;102148.20;1621467;86;20176;-77
2022/08/10 06:18:43;;;;;;;;;;;;;;;25.25;52.88;102141.93;1620271;86;20472;-77
2022/08/10 06:21:10;;;;;;;;;;;;;;;25.41;52.22;102144.14;1623054;87;20430;-77
2022/08/10 06:23:37;;;;;;;;;;;;;;;25.52;52.82;102138.23;1618543;87;20117;-77
2022/08/10 06:26:05;;;;;;;;;;;;;;;25.70;52.37;102138.59;1616659;87;20143;-77
2022/08/10 06:28:34;;;;;;;;;;;;;;;26.00;52.55;102146.59;1620790;87;20147;-77
2022/08/10 06:31:02;;;;;;;;;;;;;;;26.25;52.33;102140.77;1617643;87;20123;-77
2022/08/10 06:33:30;;;;;;;;;;;;;;;26.37;51.90;102144.06;1618607;86;20425;-77
2022/08/10 06:35:57;;;;;;;;;;;;;;;26.52;52.00;102139.63;1613150;86;20274;-77
2022/08/10 06:38:26;;;;;;;;;;;;;;;26.69;51.81;102144.33;1617674;87;20099;-77
2022/08/10 06:40:54;;;;;;;;;;;;;;;26.89;51.59;102152.43;1635658;85;20113;-77
2022/08/10 06:43:22;;;;;;;;;;;;;;;27.04;51.41;102151.51;1626644;87;20138;-78
2022/08/10 06:46:04;;;;;;;;;;;;;;;27.22;51.24;102148.20;1620918;87;20109;-78
2022/08/10 06:48:33;;;;;;;;;;;;;;;27.46;50.74;102152.95;1615620;86;20122;-78
2022/08/10 06:51:02;;;;;;;;;;;;;;;27.69;51.09;102158.52;1622559;87;20575;-78
2022/08/10 06:53:31;;;;;;;;;;;;;;;27.83;50.81;102146.16;1621124;85;20144;-78
2022/08/10 06:56:00;;;;;;;;;;;;;;;28.07;49.79;102149.89;1618526;87;20132;-78
2022/08/10 06:58:30;;;;;;;;;;;;;;;28.13;50.58;102157.44;1620515;87;20147;-77
2022/08/10 07:00:56;;;;;;;;;;;;;;;28.21;49.91;102151.17;1620545;87;20115;-77
2022/08/10 07:03:25;;;;;;;;;;;;;;;28.50;50.03;102153.23;1620720;87;20552;-77
2022/08/10 07:05:53;;;;;;;;;;;;;;;28.86;49.76;102154.36;1619048;87;20761;-77
2022/08/10 07:08:21;;;;;;;;;;;;;;;29.21;49.72;102156.73;1615863;87;20134;-77
2022/08/10 07:10:48;;;;;;;;;;;;;;;29.57;49.21;102141.80;1618115;87;20434;-77
2022/08/10 07:13:15;;;;;;;;;;;;;;;29.86;49.06;102140.52;1616393;87;20150;-77
2022/08/10 07:15:43;;;;;;;;;;;;;;;29.89;48.66;102144.77;1619948;87;20166;-77
2022/08/10 07:18:11;;;;;;;;;;;;;;;29.95;48.63;102136.31;1617858;87;20571;-76
2022/08/10 07:20:37;;;;;;;;;;;;;;;30.18;48.42;102136.80;1617079;87;20581;-76
2022/08/10 07:23:05;;;;;;;;;;;;;;;30.56;48.54;102137.06;1614967;87;20209;-76
2022/08/10 07:25:32;;;;;;;;;;;;;;;31.01;48.20;102146.52;1615894;86;20594;-75
2022/08/10 07:27:59;;;;;;;;;;;;;;;31.38;48.12;102141.31;1617225;87;20684;-75
2022/08/10 07:30:27;;;;;;;;;;;;;;;31.69;47.00;102137.05;1626550;87;20504;-75
2022/08/10 07:32:55;;;;;;;;;;;;;;;31.87;47.07;102143.55;1626891;87;20422;-79
2022/08/10 07:35:25;;;;;;;;;;;;;;;31.83;46.67;102143.92;1619372;87;20133;-79
2022/08/10 07:37:52;;;;;;;;;;;;;;;31.79;47.15;102141.13;1595390;87;20527;-79
2022/08/10 07:40:20;;;;;;;;;;;;;;;32.13;47.13;102137.88;1598907;87;20137;-79
2022/08/10 07:42:48;;;;;;;;;;;;;;;32.47;46.27;102143.45;1626683;87;20493;-79
2022/08/10 07:45:14;;;;;;;;;;;;;;;32.89;45.85;102142.09;1619112;86;20244;-80
2022/08/10 07:47:44;;;;;;;;;;;;;;;32.93;45.45;102141.34;1613336;86;20197;-75
2022/08/10 07:50:13;;;;;;;;;;;;;;;32.77;45.36;102136.45;1619921;86;20623;-74
2022/08/10 07:52:41;;;;;;;;;;;;;;;32.78;45.34;102139.00;1631955;87;20127;-74
2022/08/10 07:55:12;;;;;;;;;;;;;;;32.86;44.64;102137.85;1624984;87;20142;-74
2022/08/10 07:57:38;;;;;;;;;;;;;;;32.61;43.95;102140.94;1604334;87;20201;-74
2022/08/10 08:00:08;;;;;;;;;;;;;;;32.51;44.11;102141.36;1624654;87;20530;-74
2022/08/10 08:02:51;;;;;;;;;;;;;;;32.46;42.52;102136.88;1615108;86;20121;-75
2022/08/10 08:05:20;;;;;;;;;;;;;;;32.38;43.48;102140.69;1617935;86;20608;-74
2022/08/10 08:07:47;;;;;;;;;;;;;;;32.42;41.87;102142.13;1624680;87;20111;-74
2022/08/10 08:10:16;;;;;;;;;;;;;;;32.38;42.24;102142.88;1626804;87;20445;-74
2022/08/10 08:12:44;;;;;;;;;;;;;;;32.36;42.06;102143.50;1601239;87;20438;-74
2022/08/10 08:15:14;;;;;;;;;;;;;;;32.40;41.41;102146.77;1622568;87;20181;-74
2022/08/10 08:17:42;;;;;;;;;;;;;;;32.43;41.84;102143.34;1614311;87;20537;-74
2022/08/10 08:20:09;;;;;;;;;;;;;;;32.38;41.49;102136.19;1624275;87;20711;-74
2022/08/10 08:22:36;;;;;;;;;;;;;;;32.48;40.97;102138.94;1624505;87;20184;-74
2022/08/10 08:25:04;;;;;;;;;;;;;;;32.60;40.62;102140.58;1597930;87;20659;-74
2022/08/10 08:27:31;;;;;;;;;;;;;;;32.58;40.39;102134.50;1632060;87;20285;-74
2022/08/10 08:29:59;;;;;;;;;;;;;;;32.68;40.37;102138.09;1623608;87;21214;-74
2022/08/10 08:32:27;;;;;;;;;;;;;;;32.90;40.10;102132.59;1629308;87;20237;-74
2022/08/10 08:34:57;;;;;;;;;;;;;;;33.08;38.19;102131.48;1623730;87;20514;-74
2022/08/10 08:37:25;;;;;;;;;;;;;;;33.14;40.17;102127.41;1621081;87;20237;-74
2022/08/10 08:39:52;;;;;;;;;;;;;;;33.08;39.94;102129.29;1617993;87;20702;-74
2022/08/10 08:42:30;;;;;;;;;;;;;;;32.87;38.30;102125.30;1624422;87;20243;-74
2022/08/10 08:45:00;;;;;;;;;;;;;;;32.64;37.55;102122.41;1623905;87;20540;-74
2022/08/10 08:48:00;;;;;;;;;;;;;;;32.49;39.14;102124.08;1620781;87;20212;-74
2022/08/10 08:50:52;;;;;;;;;;;;;;;32.42;38.73;102119.37;1622175;87;20232;-74
2022/08/10 08:53:47;;;;;;;;;;;;;;;32.17;38.98;102121.43;1619349;87;20472;-74
2022/08/10 08:56:45;;;;;;;;;;;;;;;31.80;38.64;102124.11;1621114;87;20200;-74
2022/08/10 08:59:18;;;;;;;;;;;;;;;31.39;37.16;102118.09;1616663;87;20235;-74
2022/08/10 09:02:00;;;;;;;;;;;;;;;30.61;38.25;102117.09;1593806;88;20236;-74
2022/08/10 09:05:04;;;;;;;;;;;;;;;30.12;38.03;102121.77;1622149;87;20241;-74
2022/08/10 09:07:51;;;;;;;;;;;;;;;29.61;38.03;102115.29;1623023;87;20504;-75
2022/08/10 09:10:41;;;;;;;;;;;;;;;29.15;37.98;102119.87;1619139;87;20245;-75
2022/08/10 09:13:44;;;;;;;;;;;;;;;28.84;37.96;102113.19;1618055;87;20575;-75
2022/08/10 09:16:23;;;;;;;;;;;;;;;28.53;37.88;102121.09;1624607;87;20237;-75
2022/08/10 09:19:11;;;;;;;;;;;;;;;28.15;37.53;102111.64;1620523;87;20257;-75
2022/08/10 09:21:50;;;;;;;;;;;;;;;27.90;37.70;102114.23;1629906;87;20220;-75
2022/08/10 09:24:23;;;;;;;;;;;;;;;27.67;37.56;102109.92;1622099;87;20363;-75
2022/08/10 09:26:51;;;;;;;;;;;;;;;27.44;37.67;102111.00;1635765;87;20207;-75
2022/08/10 09:29:29;;;;;;;;;;;;;;;27.22;37.65;102108.84;1623847;87;20229;-75
2022/08/10 09:32:04;;;;;;;;;;;;;;;27.07;37.74;102103.14;1620382;87;20291;-75
2022/08/10 09:34:45;;;;;;;;;;;;;;;27.04;37.74;102106.84;1620591;87;20623;-78
2022/08/10 09:37:18;;;;;;;;;;;;;;;26.97;37.54;102103.73;1628704;87;20516;-78
2022/08/10 09:39:57;;;;;;;;;;;;;;;26.69;37.64;102093.05;1625675;86;20117;-78
2022/08/10 09:42:49;;;;;;;;;;;;;;;26.62;37.79;102090.38;1624276;87;20151;-78
2022/08/10 09:45:25;;;;;;;;;;;;;;;26.58;37.77;102088.39;1627812;87;20190;-78
2022/08/10 09:48:22;;;;;;;;;;;;;;;26.47;37.80;102085.55;1602787;88;20475;-78
2022/08/10 09:50:54;;;;;;;;;;;;;;;26.39;37.80;102087.80;1580876;89;20154;-78
2022/08/10 09:53:38;;;;;;;;;;;;;;;26.32;37.91;102087.78;1614616;87;20717;-78
2022/08/10 09:56:34;;;;;;;;;;;;;;;26.33;37.93;102088.16;1618367;87;20139;-78
2022/08/10 09:59:25;;;;;;;;;;;;;;;26.30;37.86;102084.33;1611470;87;20116;-79
2022/08/10 10:02:00;;;;;;;;;;;;;;;26.30;37.96;102079.88;1614664;87;20099;-78
2022/08/10 10:04:39;;;;;;;;;;;;;;;26.30;37.89;102075.90;1617945;87;20118;-78
2022/08/10 10:07:07;;;;;;;;;;;;;;;26.26;37.94;102078.82;1615666;87;20122;-78
2022/08/10 10:09:37;;;;;;;;;;;;;;;26.20;37.91;102076.05;1623439;87;20223;-78
2022/08/10 10:12:10;;;;;;;;;;;;;;;26.17;38.00;102074.91;1626406;87;20244;-78
2022/08/10 10:15:19;;;;;;;;;;;;;;;26.16;37.98;102068.37;1613260;87;20213;-78
2022/08/10 10:17:49;;;;;;;;;;;;;;;26.14;38.12;102067.13;1621043;87;20556;-78
2022/08/10 10:20:33;;;;;;;;;;;;;;;26.18;38.07;102066.48;1616213;85;20292;-78
2022/08/10 10:23:38;;;;;;;;;;;;;;;26.17;38.16;102067.42;1619976;87;20222;-78
2022/08/10 10:26:17;;;;;;;;;;;;;;;26.07;38.15;102060.47;1612249;87;20214;-78
2022/08/10 10:28:49;;;;;;;;;;;;;;;26.05;38.21;102056.59;1620441;87;20261;-78
2022/08/10 10:31:22;;;;;;;;;;;;;;;26.05;38.06;102056.59;1612227;87;20181;-78
2022/08/10 10:34:04;;;;;;;;;;;;;;;25.95;37.87;102049.28;1613451;87;20665;-79
2022/08/10 10:36:32;;;;;;;;;;;;;;;25.83;38.17;102052.64;1594538;87;20197;-79
2022/08/10 10:38:59;;;;;;;;;;;;;;;25.81;38.26;102046.09;1619357;87;20613;-79
2022/08/10 10:41:44;;;;;;;;;;;;;;;25.83;38.20;102045.54;1612866;87;20209;-79
2022/08/10 10:44:39;;;;;;;;;;;;;;;25.85;38.18;102033.53;1619364;87;20218;-79
2022/08/10 10:47:41;;;;;;;;;;;;;;;25.85;38.15;102037.50;1617951;87;20240;-79
2022/08/10 10:50:25;;;;;;;;;;;;;;;25.87;38.20;102036.95;1615196;87;20183;-77
2022/08/10 10:53:03;;;;;;;;;;;;;;;25.95;38.24;102027.61;1613471;87;20215;-77
2022/08/10 10:55:48;;;;;;;;;;;;;;;26.01;38.13;102029.02;1611666;87;20182;-77
2022/08/10 10:58:34;;;;;;;;;;;;;;;26.01;37.94;102029.02;1613359;87;20224;-77
2022/08/10 11:01:13;;;;;;;;;;;;;;;26.00;38.02;102029.48;1611447;87;20469;-78
2022/08/10 11:03:46;;;;;;;;;;;;;;;25.98;38.03;102023.45;1612310;87;20257;-77
2022/08/10 11:06:40;;;;;;;;;;;;;;;25.95;37.93;102025.42;1602206;87;20231;-77
2022/08/10 11:09:16;;;;;;;;;;;;;;;25.90;37.83;102030.14;1588797;88;20749;-77
2022/08/10 11:11:45;;;;;;;;;;;;;;;25.93;37.94;102023.34;1573626;88;20209;-77
2022/08/10 11:14:30;;;;;;;;;;;;;;;25.98;37.78;102026.58;1587931;88;20143;-77
2022/08/10 11:17:18;;;;;;;;;;;;;;;26.09;38.06;102020.14;1589460;88;20133;-77
2022/08/10 11:20:16;;;;;;;;;;;;;;;26.18;37.95;102021.41;1590338;88;20129;-77
2022/08/10 11:22:55;;;;;;;;;;;;;;;26.27;38.02;102017.73;1589272;88;20160;-77
2022/08/10 11:25:31;;;;;;;;;;;;;;;26.36;37.87;102012.39;1535193;91;20213;-77
2022/08/10 11:28:15;;;;;;;;;;;;;;;26.45;37.92;102010.98;1537377;91;20168;-77
2022/08/10 11:31:06;;;;;;;;;;;;;;;26.57;37.94;102011.53;1538902;91;20164;-77
2022/08/10 11:34:00;;;;;;;;;;;;;;;26.64;37.87;102015.05;1539635;91;20209;-77
2022/08/10 11:36:47;;;;;;;;;;;;;;;26.70;37.37;102006.70;1544739;91;20342;-77
2022/08/10 11:39:37;;;;;;;;;;;;;;;26.74;37.54;101996.76;1537313;90;20248;-76
2022/08/10 11:42:30;;;;;;;;;;;;;;;26.84;37.74;101991.27;1538890;91;20564;-75
2022/08/10 11:45:03;;;;;;;;;;;;;;;26.96;37.58;101996.31;1537426;90;20249;-75
2022/08/10 11:47:35;;;;;;;;;;;;;;;27.01;37.66;102000.38;1538058;91;20210;-75
2022/08/10 11:50:16;;;;;;;;;;;;;;;27.06;37.56;101998.73;1538088;91;20242;-75
2022/08/10 11:53:01;;;;;;;;;;;;;;;27.06;37.48;102000.53;1538060;91;21124;-75
2022/08/10 11:55:32;;;;;;;;;;;;;;;27.04;37.56;101997.98;1535512;91;20231;-75
2022/08/10 11:59:55;;;;;;;;;;;;;;;27.00;37.44;101993.36;1539940;91;20504;-75
2022/08/10 12:00:31;;;;;;;;;;;;;;;27.04;37.50;101990.86;1541573;91;20217;-75
2022/08/10 12:03:05;;;;;;;;;;;;;;;27.08;37.31;101986.21;1566087;88;20235;-76
2022/08/10 12:05:36;;;;;;;;;;;;;;;27.07;37.20;101989.81;1588494;88;20362;-77
2022/08/10 12:08:03;;;;;;;;;;;;;;;27.03;37.31;101993.14;1611799;87;20277;-77
2022/08/10 12:10:30;;;;;;;;;;;;;;;27.03;37.00;101993.14;1618524;87;20946;-78
2022/08/10 12:13:22;;;;;;;;;;;;;;;26.98;36.55;101993.08;1561995;89;20266;-77
2022/08/10 12:15:57;;;;;;;;;;;;;;;26.86;37.00;101983.20;1617742;87;20335;-77
2022/08/10 12:18:27;;;;;;;;;;;;;;;26.89;36.31;101986.52;1626062;87;20212;-77
2022/08/10 12:20:57;;;;;;;;;;;;;;;26.90;36.68;101980.73;1618162;87;20485;-77
2022/08/10 12:23:46;;;;;;;;;;;;;;;26.90;36.85;101979.41;1614225;87;20395;-77
2022/08/10 12:26:33;;;;;;;;;;;;;;;26.88;36.63;101983.48;1621112;87;20439;-77
2022/08/10 12:29:15;;;;;;;;;;;;;;;26.92;36.95;101985.47;1615378;87;20271;-77
2022/08/10 12:32:09;;;;;;;;;;;;;;;26.84;36.86;101979.31;1616410;87;20332;-77
2022/08/10 12:34:57;;;;;;;;;;;;;;;26.82;36.88;101977.70;1619524;87;20220;-77
2022/08/10 12:37:36;;;;;;;;;;;;;;;26.83;36.81;101976.75;1614676;86;20227;-77
2022/08/10 12:40:23;;;;;;;;;;;;;;;26.88;36.45;101970.21;1615298;87;20625;-77
2022/08/10 12:43:07;;;;;;;;;;;;;;;26.93;36.77;101972.58;1614539;87;20362;-77
2022/08/10 12:45:43;;;;;;;;;;;;;;;26.90;36.49;101966.13;1613544;87;20229;-77
2022/08/10 12:48:46;;;;;;;;;;;;;;;26.88;36.64;101970.69;1574550;90;20236;-77
2022/08/10 12:51:34;;;;;;;;;;;;;;;26.87;36.47;101957.03;1570470;89;20202;-77
2022/08/10 12:54:13;;;;;;;;;;;;;;;26.87;36.46;101958.36;1589298;88;20207;-77
2022/08/10 12:56:48;;;;;;;;;;;;;;;26.95;36.55;101959.59;1571426;90;20674;-77
2022/08/10 12:59:15;;;;;;;;;;;;;;;27.00;36.48;101960.17;1594015;88;20331;-77
2022/08/10 13:01:44;;;;;;;;;;;;;;;26.98;36.36;101957.24;1611327;87;21202;-77
2022/08/10 13:04:15;;;;;;;;;;;;;;;26.94;36.44;101953.05;1613894;87;20246;-77
2022/08/10 13:06:45;;;;;;;;;;;;;;;26.88;36.32;101944.99;1620405;86;20261;-77